Flight Track Log - Related Links

Times and Time Zones

All times are in EDT time to prevent confusion due to time zone crossing. See the AAY974 flight status page for this flight to view local times or setup timezone preferences in your user account.

Time Position Orientation Groundspeed Altitude Reporting Facility
EDT Latitude Longitude Course Direction KTS MPH feet Rate Location/Type
Mon 07:28:30 AM 26.9600 -81.9644 North 177 204 2,000  Level Miami Center
Mon 07:29:30 AM 27.0164 -81.9622 North 192 221 3,300 1,900 Climbing Miami Center
Mon 07:30:30 AM 27.0914 -81.9681 356° North 229 264 5,800 2,700 Climbing Miami Center
Mon 07:31:30 AM 27.1706 -81.9714 358° North 264 304 8,700 2,650 Climbing Miami Center
Mon 07:32:30 AM 27.2494 -81.9772 356° North 280 322 11,100 2,400 Climbing Miami Center
Mon 07:33:30 AM 27.3350 -81.9811 358° North 292 336 13,500 1,750 Climbing Miami Center
Mon 07:34:30 AM 27.4267 -81.9853 358° North 304 350 14,600 1,357 Climbing Miami Center
Mon 07:36:18 AM 27.6253 -81.9956 357° North 378 435 17,300 1,750 Climbing Jacksonville Center
Mon 07:37:18 AM 27.7608 -82.0061 356° North 401 461 19,500 1,800 Climbing Jacksonville Center
Mon 07:38:18 AM 27.8797 -82.0075 359° North 413 475 20,900 1,450 Climbing Jacksonville Center
Mon 07:39:18 AM 28.0011 -82.0300 351° North 429 494 22,400 1,300 Climbing Jacksonville Center
Mon 07:40:18 AM 28.0956 -82.1208 320° Northwest 421 484 23,500 1,350 Climbing Jacksonville Center
Mon 07:41:18 AM 28.2022 -82.2025 326° Northwest 444 511 25,100 1,488 Climbing Jacksonville Center
Mon 07:42:19 AM 28.3153 -82.2700 332° Northwest 452 520 26,500 1,450 Climbing Jacksonville Center
Mon 07:43:18 AM 28.4242 -82.3425 330° Northwest 452 520 28,000 1,361 Climbing Jacksonville Center
Mon 07:44:18 AM 28.5414 -82.4058 335° Northwest 452 520 29,200 1,350 Climbing Jacksonville Center
Mon 07:45:18 AM 28.6481 -82.4786 329° Northwest 452 520 30,700 1,150 Climbing Jacksonville Center
Mon 07:46:18 AM 28.7589 -82.5372 335° Northwest 447 514 31,500 650 Climbing Jacksonville Center
Mon 07:47:18 AM 28.8656 -82.6056 331° Northwest 442 509 32,000 250 Climbing Jacksonville Center
Mon 07:48:18 AM 28.9761 -82.6694 333° Northwest 442 509 32,000  Level Jacksonville Center
Mon 07:49:18 AM 29.0847 -82.7381 331° Northwest 442 509 32,000  Level Jacksonville Center
Mon 07:50:18 AM 29.1956 -82.8022 333° Northwest 442 509 32,000  Level Jacksonville Center
Mon 07:51:18 AM 29.3042 -82.8711 331° Northwest 437 503 32,000  Level Jacksonville Center
Mon 07:52:30 AM 29.4125 -82.9356 333° Northwest 442 509 32,000  Level Jacksonville Center
Mon 07:53:30 AM 29.5503 -83.0264 330° Northwest 455 524 32,000  Level Jacksonville Center
Mon 07:54:30 AM 29.6650 -83.0814 337° Northwest 455 524 32,000  Level Jacksonville Center
Mon 07:55:30 AM 29.7819 -83.1342 339° North 450 518 32,000  Level Jacksonville Center
Mon 07:56:30 AM 29.8986 -83.1897 338° Northwest 445 512 32,000  Level Jacksonville Center
Mon 07:57:30 AM 30.0156 -83.2453 338° Northwest 455 524 32,000  Level Jacksonville Center
Mon 07:58:30 AM 30.1219 -83.2936 339° North 455 524 32,000  Level Jacksonville Center
Mon 07:59:30 AM 30.2406 -83.3422 341° North 455 524 32,000  Level Jacksonville Center
Mon 08:00:30 AM 30.3553 -83.4028 336° Northwest 455 524 32,000  Level Jacksonville Center
Mon 08:01:30 AM 30.4761 -83.4542 340° North 455 524 32,000  Level Jacksonville Center
Mon 08:02:30 AM 30.5908 -83.5128 336° Northwest 455 524 32,000  Level Jacksonville Center
Mon 08:03:30 AM 30.7094 -83.5644 339° North 455 524 32,000  Level Jacksonville Center
Mon 08:04:30 AM 30.8344 -83.6281 336° Northwest 449 517 32,000  Level Jacksonville Center
Mon 08:05:30 AM 30.9531 -83.6822 339° North 454 522 32,000  Level Jacksonville Center
Mon 08:06:30 AM 31.0656 -83.7414 336° Northwest 454 522 32,000  Level Jacksonville Center
Mon 08:08:07 AM 31.2539 -83.8325 338° Northwest 458 527 32,000  Level Atlanta Center
Mon 08:09:07 AM 31.3731 -83.8881 338° Northwest 453 521 32,000  Level Atlanta Center
Mon 08:10:07 AM 31.4900 -83.9464 337° Northwest 453 521 32,000  Level Atlanta Center
Mon 08:11:07 AM 31.6131 -83.9878 344° North 453 521 32,000  Level Atlanta Center
Mon 08:12:07 AM 31.7300 -84.0119 350° North 453 521 32,000  Level Atlanta Center
Mon 08:13:07 AM 31.8572 -84.0389 350° North 453 521 32,000  Level Atlanta Center
Mon 08:14:07 AM 31.9803 -84.0608 351° North 459 528 32,000  Level Atlanta Center
Mon 08:15:07 AM 32.1097 -84.0928 348° North 459 528 32,000  Level Atlanta Center
Mon 08:16:07 AM 32.2369 -84.1175 351° North 459 528 32,000  Level Atlanta Center
Mon 08:17:07 AM 32.3622 -84.1494 348° North 469 540 32,000  Level Atlanta Center
Mon 08:18:07 AM 32.4897 -84.1719 352° North 464 534 32,000  Level Atlanta Center
Mon 08:19:07 AM 32.6147 -84.2089 346° North 464 534 32,000 150 Level Atlanta Center
Mon 08:20:07 AM 32.7442 -84.2339 351° North 464 534 32,300 600 Climbing Atlanta Center
Mon 08:21:07 AM 32.8694 -84.2714 346° North 466 536 33,200 800 Climbing Atlanta Center
Mon 08:22:07 AM 32.9986 -84.2817 356° North 466 536 33,900 400 Climbing Atlanta Center
Mon 08:23:07 AM 33.1239 -84.2819 360° North 460 529 34,000 50 Climbing Atlanta Center
Mon 08:24:07 AM 33.2514 -84.2822 360° North 455 524 34,000 50 Level Atlanta Center
Mon 08:25:07 AM 33.3828 -84.2825 360° North 455 524 34,100  Climbing Atlanta Center
Mon 08:26:07 AM 33.5122 -84.2831 360° North 455 524 34,000 -50 Descending Atlanta Center
Mon 08:27:07 AM 33.6417 -84.2808 North 455 524 34,000  Level Atlanta Center
Mon 08:28:07 AM 33.7669 -84.2886 357° North 455 524 34,000  Level Atlanta Center
Mon 08:29:07 AM 33.9006 -84.2817 North 461 531 34,000  Level Atlanta Center
Mon 08:30:07 AM 34.0256 -84.2894 357° North 461 531 34,000  Level Atlanta Center
Mon 08:31:07 AM 34.1592 -84.2797 North 475 547 34,000  Level Atlanta Center
Mon 08:32:07 AM 34.2886 -84.2903 356° North 475 547 34,000  Level Atlanta Center
Mon 08:33:07 AM 34.4283 -84.3133 352° North 463 533 34,000  Level Atlanta Center
Mon 08:34:07 AM 34.5578 -84.3214 357° North 463 533 34,000  Level Atlanta Center
Mon 08:35:07 AM 34.6850 -84.3344 355° North 463 533 34,000  Level Atlanta Center
Mon 08:36:07 AM 34.8103 -84.3475 355° North 457 526 34,000  Level Atlanta Center
Mon 08:37:07 AM 34.9147 -84.3503 359° North 462 532 34,000  Level Atlanta Center
Mon 08:38:07 AM 35.0481 -84.3736 352° North 457 526 34,000  Level Atlanta Center
Mon 08:39:07 AM 35.1775 -84.3844 356° North 457 526 34,000  Level Atlanta Center
Mon 08:40:07 AM 35.3089 -84.3822 North 462 532 34,000 50 Level Atlanta Center
Mon 08:41:07 AM 35.4361 -84.3881 358° North 462 532 34,100  Climbing Atlanta Center
Mon 08:42:07 AM 35.5656 -84.3783 North 456 525 34,000 -34 Descending Atlanta Center
Mon 08:44:05 AM 35.8150 -84.3717 North 462 532 34,000  Level Indianapolis Center
Mon 08:45:06 AM 35.9422 -84.3719 360° North 462 532 34,000  Level Indianapolis Center
Mon 08:46:08 AM 36.0944 -84.3647 North 459 528 34,000  Level Indianapolis Center
Mon 08:47:09 AM 36.2219 -84.3667 359° North 462 532 34,000  Level Indianapolis Center
Mon 08:48:11 AM 36.3481 -84.3611 North 458 527 34,000  Level Indianapolis Center
Mon 08:49:12 AM 36.4753 -84.3606 360° North 457 526 34,000  Level Indianapolis Center
Mon 08:50:14 AM 36.6003 -84.3553 North 459 528 34,000  Level Indianapolis Center
Mon 08:51:15 AM 36.7486 -84.3553 360° North 456 525 34,000  Level Indianapolis Center
Mon 08:52:17 AM 36.8767 -84.3425 North 460 529 34,000  Level Indianapolis Center
Mon 08:53:19 AM 37.0064 -84.3256 North 466 536 34,000  Level Indianapolis Center
Mon 08:54:20 AM 37.1342 -84.3092 North 464 534 34,000  Level Indianapolis Center
Mon 08:55:22 AM 37.2653 -84.2897 North 471 542 34,000  Level Indianapolis Center
Mon 08:56:23 AM 37.3914 -84.2736 North 461 531 34,000  Level Indianapolis Center
Mon 08:57:25 AM 37.5211 -84.2508 North 468 539 34,000  Level Indianapolis Center
Mon 08:58:26 AM 37.6517 -84.2328 North 470 541 34,000  Level Indianapolis Center
Mon 08:59:27 AM 37.7806 -84.2122 North 466 536 34,000  Level Indianapolis Center
Mon 09:00:29 AM 37.9339 -84.1900 North 471 542 34,000  Level Indianapolis Center
Mon 09:01:30 AM 38.0653 -84.1678 North 475 547 34,000  Level Indianapolis Center
Mon 09:02:32 AM 38.1953 -84.1511 North 470 541 34,000  Level Indianapolis Center
Mon 09:03:33 AM 38.3267 -84.1292 North 474 545 34,000  Level Indianapolis Center
Mon 09:04:35 AM 38.4564 -84.1142 North 467 537 34,000  Level Indianapolis Center
Mon 09:05:36 AM 38.5858 -84.0892 North 468 539 34,000  Level Indianapolis Center
Mon 09:06:38 AM 38.7244 -84.0725 North 468 539 34,000  Level Indianapolis Center
Mon 09:07:39 AM 38.8547 -84.0450 North 470 541 34,000 49 Level Indianapolis Center
Mon 09:08:40 AM 38.9842 -84.0439 360° North 460 529 34,100  Climbing Indianapolis Center
Mon 09:09:42 AM 39.1119 -84.0553 356° North 455 524 34,000 -195 Descending Indianapolis Center
Mon 09:10:43 AM 39.2417 -84.0586 359° North 459 528 33,700 -1,366 Descending Indianapolis Center
Mon 09:11:45 AM 39.3717 -84.0353 North 467 537 31,200 -2,683 Descending Indianapolis Center
Mon 09:12:46 AM 39.5028 -84.0214 North 474 545 28,200 -2,878 Descending Indianapolis Center
Mon 09:13:48 AM 39.6356 -83.9997 North 472 543 25,300 -1,548 Descending Indianapolis Center
Mon 09:14:50 AM 39.7606 -83.9711 10° North 452 520 25,000 -146 Descending Indianapolis Center
Mon 09:15:51 AM 39.8847 -83.9503 North 444 511 25,000  Level Indianapolis Center
Mon 09:16:53 AM 40.0092 -83.9219 10° North 446 513 25,000  Level Indianapolis Center
Mon 09:17:54 AM 40.1333 -83.9019 North 442 509 25,000  Level Indianapolis Center
Mon 09:18:56 AM 40.2575 -83.8731 10° North 445 512 25,000 -537 Level Indianapolis Center
Mon 09:19:57 AM 40.4036 -83.8469 North 450 518 23,900 -1,512 Descending Indianapolis Center
Mon 09:20:59 AM 40.5289 -83.8222 North 450 518 21,900 -1,935 Descending Indianapolis Center
Mon 09:22:01 AM 40.6481 -83.7981 North 431 496 19,900 -1,951 Descending Indianapolis Center
Mon 09:23:02 AM 40.7628 -83.7744 North 413 475 17,900 -1,805 Descending Indianapolis Center
Mon 09:24:04 AM 40.8717 -83.7594 North 393 452 16,200 -2,049 Descending Indianapolis Center
Mon 09:25:05 AM 40.9769 -83.7328 11° North 382 440 13,700 -2,244 Descending Indianapolis Center
Mon 09:26:07 AM 41.0850 -83.7289 North 366 421 11,600 -1,636 Descending Indianapolis Center
Mon 09:26:44 AM 41.1300 -83.7564 335° Northwest 339 390 11,000 -433 Descending Cleveland Center
Mon 09:27:44 AM 41.2006 -83.8397 318° Northwest 329 379 10,900 -950 Descending Cleveland Center
Mon 09:28:44 AM 41.2747 -83.9403 314° West 334 384 9,100 -1,550 Descending Cleveland Center
Mon 09:29:44 AM 41.3350 -84.0181 316° Northwest 329 379 7,800 -1,250 Descending Cleveland Center
Mon 09:30:44 AM 41.3922 -84.0569 333° Northwest 285 328 6,600 -1,500 Descending Cleveland Center
Mon 09:31:44 AM 41.4697 -84.0472 North 252 290 4,800 -1,600 Descending Cleveland Center
Mon 09:32:44 AM 41.5272 -84.0089 27° Northeast 252 290 3,400 -1,250 Descending Cleveland Center
Mon 09:33:44 AM 41.5481 -83.9378 69° East 195 224 2,300 -1,100 Descending Cleveland Center

Login

Don't have an account? Register now (free) for customized features, flight alerts, and more!